sensor_id;sensor_type;location;lat;lon;timestamp;pressure;altitude;pressure_sealevel;temperature;humidity
37291;BME280;23175;-33.706;151.094;2024-02-21T00:00:45;99948.66;;;21.90;55.38
37291;BME280;23175;-33.706;151.094;2024-02-21T00:03:15;99952.35;;;21.14;56.46
37291;BME280;23175;-33.706;151.094;2024-02-21T00:05:45;99951.13;;;21.48;55.28
37291;BME280;23175;-33.706;151.094;2024-02-21T00:08:16;99944.67;;;22.16;54.67
37291;BME280;23175;-33.706;151.094;2024-02-21T00:10:46;99942.85;;;23.80;51.57
37291;BME280;23175;-33.706;151.094;2024-02-21T00:13:16;99937.88;;;21.88;54.76
37291;BME280;23175;-33.706;151.094;2024-02-21T00:15:46;99940.88;;;19.42;59.26
37291;BME280;23175;-33.706;151.094;2024-02-21T00:18:16;99939.35;;;19.96;59.25
37291;BME280;23175;-33.706;151.094;2024-02-21T00:20:47;99937.59;;;21.86;54.71
37291;BME280;23175;-33.706;151.094;2024-02-21T00:23:17;99934.85;;;22.02;55.25
37291;BME280;23175;-33.706;151.094;2024-02-21T00:25:47;99933.56;;;22.76;52.51
37291;BME280;23175;-33.706;151.094;2024-02-21T00:28:18;99926.79;;;21.18;55.53
37291;BME280;23175;-33.706;151.094;2024-02-21T00:30:48;99923.91;;;22.90;53.34
37291;BME280;23175;-33.706;151.094;2024-02-21T00:33:19;99921.40;;;17.75;63.11
37291;BME280;23175;-33.706;151.094;2024-02-21T00:35:50;99920.50;;;19.97;59.64
37291;BME280;23175;-33.706;151.094;2024-02-21T00:38:20;99920.86;;;21.78;55.67
37291;BME280;23175;-33.706;151.094;2024-02-21T00:40:50;99923.45;;;21.88;55.36
37291;BME280;23175;-33.706;151.094;2024-02-21T00:43:20;99921.88;;;19.81;59.92
37291;BME280;23175;-33.706;151.094;2024-02-21T00:45:51;99920.14;;;21.27;57.91
37291;BME280;23175;-33.706;151.094;2024-02-21T00:48:21;99919.38;;;20.40;58.01
37291;BME280;23175;-33.706;151.094;2024-02-21T00:50:50;99919.22;;;21.97;55.90
37291;BME280;23175;-33.706;151.094;2024-02-21T00:53:20;99916.02;;;21.62;55.85
37291;BME280;23175;-33.706;151.094;2024-02-21T00:55:51;99911.80;;;20.40;57.26
37291;BME280;23175;-33.706;151.094;2024-02-21T00:58:20;99912.81;;;19.17;61.49
37291;BME280;23175;-33.706;151.094;2024-02-21T01:00:51;99911.58;;;22.52;55.07
37291;BME280;23175;-33.706;151.094;2024-02-21T01:03:21;99911.88;;;22.54;54.49
37291;BME280;23175;-33.706;151.094;2024-02-21T01:05:51;99912.16;;;20.45;58.40
37291;BME280;23175;-33.706;151.094;2024-02-21T01:08:22;99912.81;;;21.43;56.98
37291;BME280;23175;-33.706;151.094;2024-02-21T01:10:52;99914.19;;;22.73;53.62
37291;BME280;23175;-33.706;151.094;2024-02-21T01:13:22;99910.23;;;22.21;53.41
37291;BME280;23175;-33.706;151.094;2024-02-21T01:15:52;99906.95;;;21.90;56.33
37291;BME280;23175;-33.706;151.094;2024-02-21T01:18:22;99902.44;;;23.43;50.66
37291;BME280;23175;-33.706;151.094;2024-02-21T01:20:52;99900.85;;;23.16;50.80
37291;BME280;23175;-33.706;151.094;2024-02-21T01:23:23;99898.14;;;22.72;51.47
37291;BME280;23175;-33.706;151.094;2024-02-21T01:25:53;99895.79;;;21.97;52.73
37291;BME280;23175;-33.706;151.094;2024-02-21T01:28:25;99892.10;;;24.19;47.92
37291;BME280;23175;-33.706;151.094;2024-02-21T01:30:56;99891.80;;;24.29;48.96
37291;BME280;23175;-33.706;151.094;2024-02-21T01:33:26;99890.50;;;21.80;54.43
37291;BME280;23175;-33.706;151.094;2024-02-21T01:35:58;99891.28;;;19.58;57.63
37291;BME280;23175;-33.706;151.094;2024-02-21T01:38:29;99890.31;;;22.00;53.05
37291;BME280;23175;-33.706;151.094;2024-02-21T01:41:00;99888.81;;;23.05;51.73
37291;BME280;23175;-33.706;151.094;2024-02-21T01:43:30;99884.69;;;23.28;50.49
37291;BME280;23175;-33.706;151.094;2024-02-21T01:46:00;99879.65;;;19.46;57.46
37291;BME280;23175;-33.706;151.094;2024-02-21T01:48:31;99880.00;;;22.20;52.86
37291;BME280;23175;-33.706;151.094;2024-02-21T01:51:01;99879.15;;;20.25;56.60
37291;BME280;23175;-33.706;151.094;2024-02-21T01:53:36;99881.88;;;20.97;55.73
37291;BME280;23175;-33.706;151.094;2024-02-21T01:56:08;99882.82;;;23.15;52.11
37291;BME280;23175;-33.706;151.094;2024-02-21T01:58:39;99881.12;;;22.37;53.18
37291;BME280;23175;-33.706;151.094;2024-02-21T02:01:10;99880.18;;;22.96;51.31
37291;BME280;23175;-33.706;151.094;2024-02-21T02:03:41;99877.41;;;23.30;50.45
37291;BME280;23175;-33.706;151.094;2024-02-21T02:06:11;99878.06;;;21.95;54.68
37291;BME280;23175;-33.706;151.094;2024-02-21T02:08:41;99880.29;;;22.16;53.09
37291;BME280;23175;-33.706;151.094;2024-02-21T02:11:13;99879.69;;;21.10;53.97
37291;BME280;23175;-33.706;151.094;2024-02-21T02:13:43;99882.32;;;22.51;51.19
37291;BME280;23175;-33.706;151.094;2024-02-21T02:16:14;99881.58;;;22.09;52.75
37291;BME280;23175;-33.706;151.094;2024-02-21T02:18:44;99878.72;;;22.25;52.73
37291;BME280;23175;-33.706;151.094;2024-02-21T02:21:25;99875.40;;;20.49;54.89
37291;BME280;23175;-33.706;151.094;2024-02-21T02:23:57;99879.19;;;22.86;51.54
37291;BME280;23175;-33.706;151.094;2024-02-21T02:26:27;99873.37;;;21.82;53.88
37291;BME280;23175;-33.706;151.094;2024-02-21T02:28:58;99873.34;;;22.31;52.29
37291;BME280;23175;-33.706;151.094;2024-02-21T02:31:28;99873.07;;;22.48;52.40
37291;BME280;23175;-33.706;151.094;2024-02-21T02:33:58;99868.67;;;19.75;57.42
37291;BME280;23175;-33.706;151.094;2024-02-21T02:36:32;99863.46;;;21.55;54.64
37291;BME280;23175;-33.706;151.094;2024-02-21T02:39:01;99862.01;;;20.25;56.54
37291;BME280;23175;-33.706;151.094;2024-02-21T02:41:31;99861.13;;;20.83;54.96
37291;BME280;23175;-33.706;151.094;2024-02-21T02:44:04;99855.92;;;20.42;56.01
37291;BME280;23175;-33.706;151.094;2024-02-21T02:46:34;99854.19;;;23.21;51.34
37291;BME280;23175;-33.706;151.094;2024-02-21T02:49:04;99851.06;;;23.06;51.86
37291;BME280;23175;-33.706;151.094;2024-02-21T02:51:34;99848.59;;;21.93;52.94
37291;BME280;23175;-33.706;151.094;2024-02-21T02:54:05;99845.30;;;20.27;55.71
37291;BME280;23175;-33.706;151.094;2024-02-21T02:56:35;99840.61;;;21.47;52.21
37291;BME280;23175;-33.706;151.094;2024-02-21T02:59:05;99837.70;;;20.70;55.10
37291;BME280;23175;-33.706;151.094;2024-02-21T03:01:36;99832.75;;;20.85;54.93
37291;BME280;23175;-33.706;151.094;2024-02-21T03:04:06;99831.99;;;22.21;51.85
37291;BME280;23175;-33.706;151.094;2024-02-21T03:06:36;99829.05;;;22.55;51.99
37291;BME280;23175;-33.706;151.094;2024-02-21T03:09:07;99824.53;;;22.12;52.69
37291;BME280;23175;-33.706;151.094;2024-02-21T03:11:38;99819.05;;;20.99;56.21
37291;BME280;23175;-33.706;151.094;2024-02-21T03:14:08;99814.74;;;23.13;50.99
37291;BME280;23175;-33.706;151.094;2024-02-21T03:16:38;99811.42;;;22.67;51.57
37291;BME280;23175;-33.706;151.094;2024-02-21T03:19:08;99807.63;;;19.79;56.39
37291;BME280;23175;-33.706;151.094;2024-02-21T03:21:39;99806.86;;;23.15;51.45
37291;BME280;23175;-33.706;151.094;2024-02-21T03:24:09;99807.90;;;22.79;51.51
37291;BME280;23175;-33.706;151.094;2024-02-21T03:26:39;99805.11;;;21.20;53.57
37291;BME280;23175;-33.706;151.094;2024-02-21T03:29:10;99810.45;;;21.71;52.97
37291;BME280;23175;-33.706;151.094;2024-02-21T03:31:40;99808.75;;;21.39;53.15
37291;BME280;23175;-33.706;151.094;2024-02-21T03:34:11;99811.74;;;22.62;50.64
37291;BME280;23175;-33.706;151.094;2024-02-21T03:36:42;99808.43;;;20.48;55.20
37291;BME280;23175;-33.706;151.094;2024-02-21T03:39:12;99809.05;;;21.40;52.42
37291;BME280;23175;-33.706;151.094;2024-02-21T03:41:42;99808.55;;;20.75;55.23
37291;BME280;23175;-33.706;151.094;2024-02-21T03:44:12;99812.23;;;21.22;55.34
37291;BME280;23175;-33.706;151.094;2024-02-21T03:46:42;99809.07;;;21.22;55.79
37291;BME280;23175;-33.706;151.094;2024-02-21T03:49:12;99809.76;;;22.83;52.65
37291;BME280;23175;-33.706;151.094;2024-02-21T03:51:42;99802.77;;;22.39;52.28
37291;BME280;23175;-33.706;151.094;2024-02-21T03:54:13;99796.76;;;20.35;56.26
37291;BME280;23175;-33.706;151.094;2024-02-21T03:56:43;99790.61;;;21.75;53.99
37291;BME280;23175;-33.706;151.094;2024-02-21T03:59:13;99780.99;;;20.49;56.36
37291;BME280;23175;-33.706;151.094;2024-02-21T04:01:43;99771.92;;;21.26;54.21
37291;BME280;23175;-33.706;151.094;2024-02-21T04:04:13;99762.59;;;23.54;51.20
37291;BME280;23175;-33.706;151.094;2024-02-21T04:06:48;99760.58;;;23.08;51.00
37291;BME280;23175;-33.706;151.094;2024-02-21T04:09:18;99750.32;;;22.25;52.82
37291;BME280;23175;-33.706;151.094;2024-02-21T04:11:48;99744.76;;;23.19;50.66
37291;BME280;23175;-33.706;151.094;2024-02-21T04:14:18;99747.03;;;21.98;53.29
37291;BME280;23175;-33.706;151.094;2024-02-21T04:16:49;99738.15;;;22.76;51.40
37291;BME280;23175;-33.706;151.094;2024-02-21T04:19:19;99737.38;;;22.53;51.91
37291;BME280;23175;-33.706;151.094;2024-02-21T04:21:49;99732.78;;;20.72;53.55
37291;BME280;23175;-33.706;151.094;2024-02-21T04:24:19;99726.06;;;22.08;52.44
37291;BME280;23175;-33.706;151.094;2024-02-21T04:26:49;99721.58;;;23.22;51.26
37291;BME280;23175;-33.706;151.094;2024-02-21T04:29:20;99716.38;;;23.97;49.66
37291;BME280;23175;-33.706;151.094;2024-02-21T04:31:50;99725.91;;;22.10;50.93
37291;BME280;23175;-33.706;151.094;2024-02-21T04:34:20;99726.32;;;22.15;51.08
37291;BME280;23175;-33.706;151.094;2024-02-21T04:36:51;99721.29;;;21.03;51.91
37291;BME280;23175;-33.706;151.094;2024-02-21T04:39:22;99714.62;;;23.79;48.17
37291;BME280;23175;-33.706;151.094;2024-02-21T04:41:52;99721.34;;;22.67;50.73
37291;BME280;23175;-33.706;151.094;2024-02-21T04:44:22;99724.10;;;21.70;53.67
37291;BME280;23175;-33.706;151.094;2024-02-21T04:46:52;99726.64;;;22.95;51.56
37291;BME280;23175;-33.706;151.094;2024-02-21T04:49:22;99725.51;;;21.63;52.31
37291;BME280;23175;-33.706;151.094;2024-02-21T04:51:52;99721.72;;;20.62;55.70
37291;BME280;23175;-33.706;151.094;2024-02-21T04:54:22;99720.67;;;21.08;54.10
37291;BME280;23175;-33.706;151.094;2024-02-21T04:56:52;99721.98;;;22.37;51.86
37291;BME280;23175;-33.706;151.094;2024-02-21T04:59:22;99716.12;;;23.04;51.53
37291;BME280;23175;-33.706;151.094;2024-02-21T05:01:52;99713.61;;;22.40;51.72
37291;BME280;23175;-33.706;151.094;2024-02-21T05:04:23;99711.71;;;22.63;51.16
37291;BME280;23175;-33.706;151.094;2024-02-21T05:06:53;99706.42;;;24.33;48.35
37291;BME280;23175;-33.706;151.094;2024-02-21T05:09:23;99714.63;;;22.38;51.98
37291;BME280;23175;-33.706;151.094;2024-02-21T05:11:53;99712.19;;;22.00;53.81
37291;BME280;23175;-33.706;151.094;2024-02-21T05:14:24;99710.96;;;22.38;53.18
37291;BME280;23175;-33.706;151.094;2024-02-21T05:16:53;99713.39;;;20.99;56.61
37291;BME280;23175;-33.706;151.094;2024-02-21T05:19:23;99710.35;;;20.32;56.96
37291;BME280;23175;-33.706;151.094;2024-02-21T05:21:53;99705.74;;;21.67;54.83
37291;BME280;23175;-33.706;151.094;2024-02-21T05:24:24;99702.74;;;23.85;50.83
37291;BME280;23175;-33.706;151.094;2024-02-21T05:26:55;99702.35;;;20.97;55.33
37291;BME280;23175;-33.706;151.094;2024-02-21T05:29:25;99696.80;;;21.83;54.37
37291;BME280;23175;-33.706;151.094;2024-02-21T05:31:58;99694.63;;;23.00;52.26
37291;BME280;23175;-33.706;151.094;2024-02-21T05:34:28;99689.91;;;22.97;52.21
37291;BME280;23175;-33.706;151.094;2024-02-21T05:36:59;99690.58;;;23.83;50.68
37291;BME280;23175;-33.706;151.094;2024-02-21T05:39:29;99690.56;;;21.63;53.75
37291;BME280;23175;-33.706;151.094;2024-02-21T05:41:59;99690.70;;;22.67;51.54
37291;BME280;23175;-33.706;151.094;2024-02-21T05:44:29;99694.60;;;21.53;53.93
37291;BME280;23175;-33.706;151.094;2024-02-21T05:46:59;99699.61;;;22.55;52.46
37291;BME280;23175;-33.706;151.094;2024-02-21T05:49:29;99699.52;;;22.68;52.01
37291;BME280;23175;-33.706;151.094;2024-02-21T05:51:59;99693.85;;;22.86;51.68
37291;BME280;23175;-33.706;151.094;2024-02-21T05:54:30;99693.06;;;22.55;51.80
37291;BME280;23175;-33.706;151.094;2024-02-21T05:57:00;99695.97;;;21.90;52.94
37291;BME280;23175;-33.706;151.094;2024-02-21T05:59:30;99698.91;;;21.90;53.04
37291;BME280;23175;-33.706;151.094;2024-02-21T06:02:00;99699.29;;;23.21;50.77
37291;BME280;23175;-33.706;151.094;2024-02-21T06:04:30;99706.93;;;20.49;55.02
37291;BME280;23175;-33.706;151.094;2024-02-21T06:07:00;99707.73;;;21.47;53.67
37291;BME280;23175;-33.706;151.094;2024-02-21T06:09:31;99708.79;;;22.63;52.54
37291;BME280;23175;-33.706;151.094;2024-02-21T06:12:01;99702.15;;;23.95;50.03
37291;BME280;23175;-33.706;151.094;2024-02-21T06:14:31;99705.10;;;22.65;51.56
37291;BME280;23175;-33.706;151.094;2024-02-21T06:17:01;99706.66;;;20.81;55.80
37291;BME280;23175;-33.706;151.094;2024-02-21T06:19:31;99707.59;;;22.93;52.27
37291;BME280;23175;-33.706;151.094;2024-02-21T06:22:02;99705.97;;;22.37;52.77
37291;BME280;23175;-33.706;151.094;2024-02-21T06:24:32;99699.43;;;24.36;49.68
37291;BME280;23175;-33.706;151.094;2024-02-21T06:27:02;99703.88;;;19.74;58.84
37291;BME280;23175;-33.706;151.094;2024-02-21T06:29:32;99708.23;;;20.68;55.64
37291;BME280;23175;-33.706;151.094;2024-02-21T06:32:03;99711.65;;;21.67;54.49
37291;BME280;23175;-33.706;151.094;2024-02-21T06:34:34;99707.99;;;22.52;51.92
37291;BME280;23175;-33.706;151.094;2024-02-21T06:37:05;99706.78;;;22.76;52.06
37291;BME280;23175;-33.706;151.094;2024-02-21T06:39:37;99704.62;;;24.34;49.01
37291;BME280;23175;-33.706;151.094;2024-02-21T06:42:07;99708.57;;;22.29;52.75
37291;BME280;23175;-33.706;151.094;2024-02-21T06:44:37;99710.20;;;23.66;50.56
37291;BME280;23175;-33.706;151.094;2024-02-21T06:47:07;99709.89;;;24.50;49.34
37291;BME280;23175;-33.706;151.094;2024-02-21T06:49:38;99712.89;;;21.67;54.16
37291;BME280;23175;-33.706;151.094;2024-02-21T06:52:08;99713.32;;;20.94;56.27
37291;BME280;23175;-33.706;151.094;2024-02-21T06:54:38;99708.53;;;22.42;54.23
37291;BME280;23175;-33.706;151.094;2024-02-21T06:57:08;99697.70;;;23.00;53.71
37291;BME280;23175;-33.706;151.094;2024-02-21T06:59:39;99701.75;;;20.43;58.45
37291;BME280;23175;-33.706;151.094;2024-02-21T07:02:09;99706.88;;;22.35;54.32
37291;BME280;23175;-33.706;151.094;2024-02-21T07:04:39;99709.81;;;20.65;57.96
37291;BME280;23175;-33.706;151.094;2024-02-21T07:07:09;99711.81;;;20.79;57.75
37291;BME280;23175;-33.706;151.094;2024-02-21T07:09:40;99709.45;;;21.74;56.16
37291;BME280;23175;-33.706;151.094;2024-02-21T07:12:10;99708.92;;;22.33;55.51
37291;BME280;23175;-33.706;151.094;2024-02-21T07:14:40;99704.10;;;23.67;52.72
37291;BME280;23175;-33.706;151.094;2024-02-21T07:17:10;99704.74;;;23.88;51.51
37291;BME280;23175;-33.706;151.094;2024-02-21T07:19:40;99709.60;;;21.27;56.06
37291;BME280;23175;-33.706;151.094;2024-02-21T07:22:10;99711.97;;;23.92;51.20
37291;BME280;23175;-33.706;151.094;2024-02-21T07:24:41;99713.72;;;21.53;54.32
37291;BME280;23175;-33.706;151.094;2024-02-21T07:27:13;99712.88;;;22.88;52.18
37291;BME280;23175;-33.706;151.094;2024-02-21T07:29:43;99716.19;;;21.51;55.25
37291;BME280;23175;-33.706;151.094;2024-02-21T07:32:14;99719.36;;;21.52;54.82
37291;BME280;23175;-33.706;151.094;2024-02-21T07:34:44;99722.11;;;21.34;55.39
37291;BME280;23175;-33.706;151.094;2024-02-21T07:37:15;99720.09;;;23.31;51.68
37291;BME280;23175;-33.706;151.094;2024-02-21T07:39:45;99722.54;;;24.00;50.74
37291;BME280;23175;-33.706;151.094;2024-02-21T07:42:15;99726.57;;;23.87;50.31
37291;BME280;23175;-33.706;151.094;2024-02-21T07:44:46;99734.09;;;20.81;55.16
37291;BME280;23175;-33.706;151.094;2024-02-21T07:47:16;99738.79;;;23.34;49.79
37291;BME280;23175;-33.706;151.094;2024-02-21T07:49:46;99744.88;;;22.11;51.91
37291;BME280;23175;-33.706;151.094;2024-02-21T07:52:16;99745.27;;;22.29;51.99
37291;BME280;23175;-33.706;151.094;2024-02-21T07:54:46;99741.83;;;23.63;50.09
37291;BME280;23175;-33.706;151.094;2024-02-21T07:57:17;99739.40;;;23.41;50.01
37291;BME280;23175;-33.706;151.094;2024-02-21T07:59:47;99736.54;;;23.61;49.37
37291;BME280;23175;-33.706;151.094;2024-02-21T08:02:17;99735.59;;;19.89;55.52
37291;BME280;23175;-33.706;151.094;2024-02-21T08:04:47;99742.33;;;23.16;50.12
37291;BME280;23175;-33.706;151.094;2024-02-21T08:07:17;99746.22;;;22.55;50.48
37291;BME280;23175;-33.706;151.094;2024-02-21T08:09:47;99748.60;;;22.56;50.63
37291;BME280;23175;-33.706;151.094;2024-02-21T08:12:17;99750.52;;;20.46;53.74
37291;BME280;23175;-33.706;151.094;2024-02-21T08:14:47;99753.32;;;20.76;54.39
37291;BME280;23175;-33.706;151.094;2024-02-21T08:17:18;99754.94;;;21.80;51.95
37291;BME280;23175;-33.706;151.094;2024-02-21T08:19:48;99757.33;;;22.37;51.97
37291;BME280;23175;-33.706;151.094;2024-02-21T08:22:18;99757.57;;;22.36;52.33
37291;BME280;23175;-33.706;151.094;2024-02-21T08:24:48;99757.75;;;19.85;56.45
37291;BME280;23175;-33.706;151.094;2024-02-21T08:27:19;99758.89;;;20.74;55.25
37291;BME280;23175;-33.706;151.094;2024-02-21T08:29:50;99762.99;;;21.85;54.06
37291;BME280;23175;-33.706;151.094;2024-02-21T08:32:20;99768.73;;;23.62;50.91
37291;BME280;23175;-33.706;151.094;2024-02-21T08:34:50;99770.76;;;23.26;51.54
37291;BME280;23175;-33.706;151.094;2024-02-21T08:37:21;99773.91;;;22.56;52.17
37291;BME280;23175;-33.706;151.094;2024-02-21T08:39:51;99774.84;;;22.17;52.37
37291;BME280;23175;-33.706;151.094;2024-02-21T08:42:21;99771.82;;;23.67;50.26
37291;BME280;23175;-33.706;151.094;2024-02-21T08:44:51;99782.22;;;23.12;51.21
37291;BME280;23175;-33.706;151.094;2024-02-21T08:47:21;99784.25;;;24.04;49.65
37291;BME280;23175;-33.706;151.094;2024-02-21T08:50:01;99786.61;;;23.28;50.95
37291;BME280;23175;-33.706;151.094;2024-02-21T08:52:31;99781.36;;;24.55;48.57
37291;BME280;23175;-33.706;151.094;2024-02-21T08:55:01;99775.24;;;23.53;50.93
37291;BME280;23175;-33.706;151.094;2024-02-21T08:57:31;99773.73;;;21.76;52.71
37291;BME280;23175;-33.706;151.094;2024-02-21T09:00:01;99767.37;;;23.89;49.93
37291;BME280;23175;-33.706;151.094;2024-02-21T09:02:31;99774.61;;;24.52;49.43
37291;BME280;23175;-33.706;151.094;2024-02-21T09:05:01;99777.25;;;24.33;49.72
37291;BME280;23175;-33.706;151.094;2024-02-21T09:07:32;99779.46;;;24.49;48.97
37291;BME280;23175;-33.706;151.094;2024-02-21T09:10:02;99781.85;;;24.67;48.41
37291;BME280;23175;-33.706;151.094;2024-02-21T09:12:32;99787.68;;;24.21;48.61
37291;BME280;23175;-33.706;151.094;2024-02-21T09:15:02;99796.55;;;24.77;48.27
37291;BME280;23175;-33.706;151.094;2024-02-21T09:17:32;99798.15;;;23.75;49.56
37291;BME280;23175;-33.706;151.094;2024-02-21T09:20:02;99798.42;;;25.27;47.42
37291;BME280;23175;-33.706;151.094;2024-02-21T09:22:33;99798.54;;;25.07;47.20
37291;BME280;23175;-33.706;151.094;2024-02-21T09:25:03;99801.14;;;25.25;47.53
37291;BME280;23175;-33.706;151.094;2024-02-21T09:27:34;99801.99;;;24.76;47.29
37291;BME280;23175;-33.706;151.094;2024-02-21T09:30:04;99804.79;;;25.19;47.10
37291;BME280;23175;-33.706;151.094;2024-02-21T09:32:35;99807.45;;;25.54;47.22
37291;BME280;23175;-33.706;151.094;2024-02-21T09:35:06;99809.56;;;24.92;47.77
37291;BME280;23175;-33.706;151.094;2024-02-21T09:37:37;99812.65;;;24.91;47.51
37291;BME280;23175;-33.706;151.094;2024-02-21T09:40:08;99814.98;;;25.01;47.25
37291;BME280;23175;-33.706;151.094;2024-02-21T09:42:40;99816.45;;;24.81;47.59
37291;BME280;23175;-33.706;151.094;2024-02-21T09:45:20;99818.22;;;25.78;47.11
37291;BME280;23175;-33.706;151.094;2024-02-21T09:48:06;99820.30;;;25.04;47.21
37291;BME280;23175;-33.706;151.094;2024-02-21T09:50:41;99827.00;;;25.00;47.28
37291;BME280;23175;-33.706;151.094;2024-02-21T09:53:14;99832.88;;;24.92;47.41
37291;BME280;23175;-33.706;151.094;2024-02-21T09:55:45;99839.41;;;24.97;47.31
37291;BME280;23175;-33.706;151.094;2024-02-21T09:58:15;99845.01;;;24.83;47.66
37291;BME280;23175;-33.706;151.094;2024-02-21T10:00:46;99845.18;;;24.97;47.39
37291;BME280;23175;-33.706;151.094;2024-02-21T10:03:16;99845.37;;;25.36;47.39
37291;BME280;23175;-33.706;151.094;2024-02-21T10:05:49;99845.52;;;24.89;47.51
37291;BME280;23175;-33.706;151.094;2024-02-21T10:08:20;99845.92;;;24.86;47.57
37291;BME280;23175;-33.706;151.094;2024-02-21T10:10:50;99851.55;;;25.24;47.54
37291;BME280;23175;-33.706;151.094;2024-02-21T10:13:29;99859.41;;;24.84;47.67
37291;BME280;23175;-33.706;151.094;2024-02-21T10:16:08;99866.84;;;24.20;48.61
37291;BME280;23175;-33.706;151.094;2024-02-21T10:18:37;99873.74;;;25.21;47.68
37291;BME280;23175;-33.706;151.094;2024-02-21T10:21:08;99874.49;;;24.73;47.92
37291;BME280;23175;-33.706;151.094;2024-02-21T10:23:47;99875.93;;;24.95;47.58
37291;BME280;23175;-33.706;151.094;2024-02-21T10:26:18;99873.74;;;25.20;48.33
37291;BME280;23175;-33.706;151.094;2024-02-21T10:28:49;99871.91;;;24.66;48.17
37291;BME280;23175;-33.706;151.094;2024-02-21T10:31:25;99871.20;;;24.78;48.02
37291;BME280;23175;-33.706;151.094;2024-02-21T10:34:05;99870.04;;;25.19;47.88
37291;BME280;23175;-33.706;151.094;2024-02-21T10:36:35;99869.08;;;24.81;48.00
37291;BME280;23175;-33.706;151.094;2024-02-21T10:39:06;99869.11;;;24.74;48.14
37291;BME280;23175;-33.706;151.094;2024-02-21T10:41:37;99868.07;;;24.63;48.30
37291;BME280;23175;-33.706;151.094;2024-02-21T10:44:09;99873.47;;;25.13;48.49
37291;BME280;23175;-33.706;151.094;2024-02-21T10:46:40;99867.53;;;24.54;48.29
37291;BME280;23175;-33.706;151.094;2024-02-21T10:49:14;99865.93;;;24.89;48.28
37291;BME280;23175;-33.706;151.094;2024-02-21T10:51:50;99866.80;;;24.98;48.16
37291;BME280;23175;-33.706;151.094;2024-02-21T10:54:43;99865.59;;;25.30;48.14
37291;BME280;23175;-33.706;151.094;2024-02-21T10:57:15;99867.40;;;24.70;49.11
37291;BME280;23175;-33.706;151.094;2024-02-21T10:59:47;99867.83;;;24.12;49.10
37291;BME280;23175;-33.706;151.094;2024-02-21T11:02:17;99866.29;;;24.66;48.73
37291;BME280;23175;-33.706;151.094;2024-02-21T11:04:48;99866.39;;;24.58;48.85
37291;BME280;23175;-33.706;151.094;2024-02-21T11:07:20;99866.97;;;24.50;48.98
37291;BME280;23175;-33.706;151.094;2024-02-21T11:09:53;99869.49;;;24.56;49.41
37291;BME280;23175;-33.706;151.094;2024-02-21T11:12:25;99870.61;;;24.52;49.42
37291;BME280;23175;-33.706;151.094;2024-02-21T11:15:05;99873.49;;;24.24;49.40
37291;BME280;23175;-33.706;151.094;2024-02-21T11:17:35;99866.07;;;24.29;49.22
37291;BME280;23175;-33.706;151.094;2024-02-21T11:20:15;99865.76;;;24.67;48.94
37291;BME280;23175;-33.706;151.094;2024-02-21T11:22:45;99877.60;;;24.42;49.44
37291;BME280;23175;-33.706;151.094;2024-02-21T11:25:22;99875.70;;;24.29;49.15
37291;BME280;23175;-33.706;151.094;2024-02-21T11:28:01;99877.74;;;24.65;48.89
37291;BME280;23175;-33.706;151.094;2024-02-21T11:30:32;99878.30;;;23.92;49.03
37291;BME280;23175;-33.706;151.094;2024-02-21T11:33:05;99876.91;;;24.53;49.11
37291;BME280;23175;-33.706;151.094;2024-02-21T11:35:36;99876.84;;;23.88;49.05
37291;BME280;23175;-33.706;151.094;2024-02-21T11:38:11;99880.44;;;24.29;48.98
37291;BME280;23175;-33.706;151.094;2024-02-21T11:40:43;99883.82;;;24.55;49.13
37291;BME280;23175;-33.706;151.094;2024-02-21T11:43:13;99889.92;;;24.58;48.93
37291;BME280;23175;-33.706;151.094;2024-02-21T11:45:44;99892.29;;;24.57;48.95
37291;BME280;23175;-33.706;151.094;2024-02-21T11:48:15;99887.44;;;24.57;48.91
37291;BME280;23175;-33.706;151.094;2024-02-21T11:50:54;99885.33;;;23.33;50.80
37291;BME280;23175;-33.706;151.094;2024-02-21T11:53:25;99882.50;;;22.03;53.29
37291;BME280;23175;-33.706;151.094;2024-02-21T11:55:54;99884.58;;;23.60;50.67
37291;BME280;23175;-33.706;151.094;2024-02-21T11:58:25;99882.79;;;23.94;50.06
37291;BME280;23175;-33.706;151.094;2024-02-21T12:00:55;99879.51;;;23.69;50.31
37291;BME280;23175;-33.706;151.094;2024-02-21T12:03:26;99879.66;;;23.99;49.77
37291;BME280;23175;-33.706;151.094;2024-02-21T12:05:56;99878.60;;;24.22;49.31
37291;BME280;23175;-33.706;151.094;2024-02-21T12:08:27;99880.93;;;24.01;49.19
37291;BME280;23175;-33.706;151.094;2024-02-21T12:10:57;99879.14;;;23.99;49.53
37291;BME280;23175;-33.706;151.094;2024-02-21T12:13:28;99878.25;;;23.26;50.89
37291;BME280;23175;-33.706;151.094;2024-02-21T12:15:58;99875.58;;;23.94;50.43
37291;BME280;23175;-33.706;151.094;2024-02-21T12:18:29;99871.45;;;23.72;50.19
37291;BME280;23175;-33.706;151.094;2024-02-21T12:20:59;99868.60;;;23.95;49.79
37291;BME280;23175;-33.706;151.094;2024-02-21T12:23:29;99870.18;;;24.13;49.49
37291;BME280;23175;-33.706;151.094;2024-02-21T12:26:01;99874.53;;;24.09;49.46
37291;BME280;23175;-33.706;151.094;2024-02-21T12:28:31;99876.02;;;23.74;49.53
37291;BME280;23175;-33.706;151.094;2024-02-21T12:31:01;99876.06;;;24.30;49.04
37291;BME280;23175;-33.706;151.094;2024-02-21T12:33:31;99873.28;;;24.36;49.01
37291;BME280;23175;-33.706;151.094;2024-02-21T12:36:01;99872.81;;;24.33;49.01
37291;BME280;23175;-33.706;151.094;2024-02-21T12:38:31;99872.34;;;24.06;48.95
37291;BME280;23175;-33.706;151.094;2024-02-21T12:41:01;99870.53;;;24.11;49.35
37291;BME280;23175;-33.706;151.094;2024-02-21T12:43:31;99865.44;;;23.89;49.09
37291;BME280;23175;-33.706;151.094;2024-02-21T12:46:01;99868.69;;;24.30;48.97
37291;BME280;23175;-33.706;151.094;2024-02-21T12:48:31;99871.34;;;23.22;50.97